sensor_id;sensor_type;location;lat;lon;timestamp;pressure;altitude;pressure_sealevel;temperature;humidity
69402;BME280;56589;51.992;5.924;2023-02-10T00:01:16;102932.31;;;1.88;77.12
69402;BME280;56589;51.992;5.924;2023-02-10T00:03:43;102934.91;;;1.85;77.38
69402;BME280;56589;51.992;5.924;2023-02-10T00:06:10;102939.22;;;1.84;76.95
69402;BME280;56589;51.992;5.924;2023-02-10T00:08:37;102945.25;;;1.83;77.38
69402;BME280;56589;51.992;5.924;2023-02-10T00:11:08;102947.84;;;1.85;77.23
69402;BME280;56589;51.992;5.924;2023-02-10T00:13:35;102941.78;;;1.83;77.32
69402;BME280;56589;51.992;5.924;2023-02-10T00:16:04;102945.25;;;1.83;77.45
69402;BME280;56589;51.992;5.924;2023-02-10T00:18:32;102941.81;;;1.84;77.50
69402;BME280;56589;51.992;5.924;2023-02-10T00:21:05;102940.09;;;1.88;77.24
69402;BME280;56589;51.992;5.924;2023-02-10T00:23:32;102940.94;;;1.84;77.66
69402;BME280;56589;51.992;5.924;2023-02-10T00:26:00;102946.09;;;1.82;77.46
69402;BME280;56589;51.992;5.924;2023-02-10T00:28:31;102953.03;;;1.83;77.53
69402;BME280;56589;51.992;5.924;2023-02-10T00:30:58;102948.72;;;1.84;77.77
69402;BME280;56589;51.992;5.924;2023-02-10T00:33:24;102960.78;;;1.85;77.56
69402;BME280;56589;51.992;5.924;2023-02-10T00:35:50;102959.88;;;1.81;78.21
69402;BME280;56589;51.992;5.924;2023-02-10T00:38:15;102953.84;;;1.79;77.91
69402;BME280;56589;51.992;5.924;2023-02-10T00:40:41;102961.63;;;1.79;78.19
69402;BME280;56589;51.992;5.924;2023-02-10T00:43:07;102951.25;;;1.78;78.54
69402;BME280;56589;51.992;5.924;2023-02-10T00:45:35;102959.88;;;1.80;78.08
69402;BME280;56589;51.992;5.924;2023-02-10T00:48:01;102952.13;;;1.80;78.08
69402;BME280;56589;51.992;5.924;2023-02-10T00:50:27;102960.75;;;1.82;78.07
69402;BME280;56589;51.992;5.924;2023-02-10T00:52:53;102962.47;;;1.81;77.99
69402;BME280;56589;51.992;5.924;2023-02-10T00:55:18;102956.44;;;1.81;78.10
69402;BME280;56589;51.992;5.924;2023-02-10T00:57:44;102959.88;;;1.77;78.51
69402;BME280;56589;51.992;5.924;2023-02-10T01:00:11;102960.75;;;1.77;78.23
69402;BME280;56589;51.992;5.924;2023-02-10T01:02:40;102966.78;;;1.78;78.35
69402;BME280;56589;51.992;5.924;2023-02-10T01:05:07;102971.13;;;1.80;78.29
69402;BME280;56589;51.992;5.924;2023-02-10T01:07:32;102978.03;;;1.80;78.32
69402;BME280;56589;51.992;5.924;2023-02-10T01:09:58;102974.56;;;1.79;78.33
69402;BME280;56589;51.992;5.924;2023-02-10T01:12:24;102975.47;;;1.83;78.51
69402;BME280;56589;51.992;5.924;2023-02-10T01:14:50;102974.56;;;1.82;78.30
69402;BME280;56589;51.992;5.924;2023-02-10T01:17:16;102978.94;;;1.85;78.55
69402;BME280;56589;51.992;5.924;2023-02-10T01:19:44;102979.78;;;1.84;78.54
69402;BME280;56589;51.992;5.924;2023-02-10T01:22:10;102984.94;;;1.82;78.31
69402;BME280;56589;51.992;5.924;2023-02-10T01:24:36;102991.00;;;1.83;78.56
69402;BME280;56589;51.992;5.924;2023-02-10T01:27:02;102986.66;;;1.82;78.28
69402;BME280;56589;51.992;5.924;2023-02-10T01:29:28;102987.53;;;1.82;78.08
69402;BME280;56589;51.992;5.924;2023-02-10T01:31:54;102984.94;;;1.81;78.05
69402;BME280;56589;51.992;5.924;2023-02-10T01:34:20;102983.19;;;1.80;78.22
69402;BME280;56589;51.992;5.924;2023-02-10T01:36:48;102977.16;;;1.78;78.05
69402;BME280;56589;51.992;5.924;2023-02-10T01:39:15;102978.00;;;1.77;78.14
69402;BME280;56589;51.992;5.924;2023-02-10T01:41:41;102976.25;;;1.76;78.26
69402;BME280;56589;51.992;5.924;2023-02-10T01:47:18;102971.00;;;1.66;78.20
69402;BME280;56589;51.992;5.924;2023-02-10T01:49:46;102968.41;;;1.65;78.62
69402;BME280;56589;51.992;5.924;2023-02-10T01:52:21;102959.75;;;1.63;78.13
69402;BME280;56589;51.992;5.924;2023-02-10T01:54:53;102964.94;;;1.61;78.39
69402;BME280;56589;51.992;5.924;2023-02-10T01:57:24;102966.66;;;1.58;78.43
69402;BME280;56589;51.992;5.924;2023-02-10T01:59:51;102983.00;;;1.52;78.69
69402;BME280;56589;51.992;5.924;2023-02-10T02:02:18;102976.03;;;1.51;78.39
69402;BME280;56589;51.992;5.924;2023-02-10T02:04:48;102989.00;;;1.51;78.50
69402;BME280;56589;51.992;5.924;2023-02-10T02:07:19;102981.22;;;1.50;78.18
69402;BME280;56589;51.992;5.924;2023-02-10T02:09:52;102972.59;;;1.48;78.71
69402;BME280;56589;51.992;5.924;2023-02-10T02:12:26;102984.66;;;1.46;78.42
69402;BME280;56589;51.992;5.924;2023-02-10T02:15:06;102988.94;;;1.45;78.45
69402;BME280;56589;51.992;5.924;2023-02-10T02:17:43;102986.34;;;1.43;78.56
69402;BME280;56589;51.992;5.924;2023-02-10T02:20:43;102987.19;;;1.44;78.59
69402;BME280;56589;51.992;5.924;2023-02-10T02:24:19;102990.59;;;1.38;78.87
69402;BME280;56589;51.992;5.924;2023-02-10T02:30:41;102977.63;;;1.34;79.16
69402;BME280;56589;51.992;5.924;2023-02-10T02:33:28;102983.69;;;1.36;79.05
69402;BME280;56589;51.992;5.924;2023-02-10T02:36:01;102983.69;;;1.37;79.12
69402;BME280;56589;51.992;5.924;2023-02-10T02:38:37;102984.56;;;1.38;78.74
69402;BME280;56589;51.992;5.924;2023-02-10T02:41:03;102985.47;;;1.40;79.11
69402;BME280;56589;51.992;5.924;2023-02-10T02:43:29;102981.16;;;1.40;79.05
69402;BME280;56589;51.992;5.924;2023-02-10T02:45:59;102986.34;;;1.43;78.95
69402;BME280;56589;51.992;5.924;2023-02-10T02:48:44;102979.44;;;1.44;78.90
69402;BME280;56589;51.992;5.924;2023-02-10T02:51:31;102981.16;;;1.42;78.76
69402;BME280;56589;51.992;5.924;2023-02-10T02:54:12;102975.97;;;1.40;78.86
69402;BME280;56589;51.992;5.924;2023-02-10T02:56:47;102981.09;;;1.37;79.09
69402;BME280;56589;51.992;5.924;2023-02-10T02:59:20;102987.13;;;1.35;78.72
69402;BME280;56589;51.992;5.924;2023-02-10T03:01:56;102995.75;;;1.34;79.12
69402;BME280;56589;51.992;5.924;2023-02-10T03:04:30;102999.16;;;1.33;79.11
69402;BME280;56589;51.992;5.924;2023-02-10T03:06:59;102998.31;;;1.32;78.94
69402;BME280;56589;51.992;5.924;2023-02-10T03:09:26;102997.44;;;1.30;78.78
69402;BME280;56589;51.992;5.924;2023-02-10T03:11:53;103000.00;;;1.29;78.99
69402;BME280;56589;51.992;5.924;2023-02-10T03:14:19;102990.47;;;1.25;78.53
69402;BME280;56589;51.992;5.924;2023-02-10T03:16:45;102996.50;;;1.24;78.89
69402;BME280;56589;51.992;5.924;2023-02-10T03:19:11;102999.97;;;1.24;78.58
69402;BME280;56589;51.992;5.924;2023-02-10T03:21:40;103006.84;;;1.24;78.69
69402;BME280;56589;51.992;5.924;2023-02-10T03:24:06;103000.81;;;1.22;78.89
69402;BME280;56589;51.992;5.924;2023-02-10T03:26:32;103000.78;;;1.20;78.71
69402;BME280;56589;51.992;5.924;2023-02-10T03:28:58;103000.69;;;1.14;78.66
69402;BME280;56589;51.992;5.924;2023-02-10T03:31:24;103001.56;;;1.13;78.52
69402;BME280;56589;51.992;5.924;2023-02-10T03:33:50;103003.22;;;1.08;78.60
69402;BME280;56589;51.992;5.924;2023-02-10T03:36:16;102998.91;;;1.05;78.80
69402;BME280;56589;51.992;5.924;2023-02-10T03:38:44;103003.22;;;1.05;78.66
69402;BME280;56589;51.992;5.924;2023-02-10T03:41:10;103002.28;;;1.01;78.67
69402;BME280;56589;51.992;5.924;2023-02-10T03:43:36;103005.72;;;0.99;78.68
69402;BME280;56589;51.992;5.924;2023-02-10T03:46:03;103003.94;;;0.95;78.92
69402;BME280;56589;51.992;5.924;2023-02-10T03:48:30;103008.25;;;0.94;78.74
69402;BME280;56589;51.992;5.924;2023-02-10T03:50:57;103001.34;;;0.93;79.02
69402;BME280;56589;51.992;5.924;2023-02-10T03:53:23;103003.91;;;0.92;78.63
69402;BME280;56589;51.992;5.924;2023-02-10T03:55:52;103007.38;;;0.91;78.51
69402;BME280;56589;51.992;5.924;2023-02-10T03:58:18;103002.13;;;0.86;79.05
69402;BME280;56589;51.992;5.924;2023-02-10T04:00:44;103004.72;;;0.84;78.62
69402;BME280;56589;51.992;5.924;2023-02-10T04:03:09;103010.69;;;0.82;78.59
69402;BME280;56589;51.992;5.924;2023-02-10T04:05:35;103004.66;;;0.80;78.87
69402;BME280;56589;51.992;5.924;2023-02-10T04:08:01;102990.81;;;0.78;78.65
69402;BME280;56589;51.992;5.924;2023-02-10T04:10:27;103000.28;;;0.77;78.72
69402;BME280;56589;51.992;5.924;2023-02-10T04:12:56;103001.13;;;0.76;78.93
69402;BME280;56589;51.992;5.924;2023-02-10T04:15:22;103009.75;;;0.74;78.89
69402;BME280;56589;51.992;5.924;2023-02-10T04:17:48;103003.66;;;0.72;79.05
69402;BME280;56589;51.992;5.924;2023-02-10T04:20:15;103007.09;;;0.71;78.88
69402;BME280;56589;51.992;5.924;2023-02-10T04:22:41;103007.97;;;0.71;79.02
69402;BME280;56589;51.992;5.924;2023-02-10T04:25:07;103007.94;;;0.70;78.71
69402;BME280;56589;51.992;5.924;2023-02-10T04:27:35;103012.25;;;0.71;78.99
69402;BME280;56589;51.992;5.924;2023-02-10T04:30:04;103009.66;;;0.68;78.99
69402;BME280;56589;51.992;5.924;2023-02-10T04:32:31;103010.50;;;0.67;79.12
69402;BME280;56589;51.992;5.924;2023-02-10T04:34:57;103019.13;;;0.67;78.96
69402;BME280;56589;51.992;5.924;2023-02-10T04:37:22;103020.81;;;0.65;79.04
69402;BME280;56589;51.992;5.924;2023-02-10T04:39:48;103013.91;;;0.64;79.08
69402;BME280;56589;51.992;5.924;2023-02-10T04:42:14;103019.94;;;0.63;79.30
69402;BME280;56589;51.992;5.924;2023-02-10T04:44:40;103014.75;;;0.63;79.29
69402;BME280;56589;51.992;5.924;2023-02-10T04:47:08;103017.34;;;0.63;79.47
69402;BME280;56589;51.992;5.924;2023-02-10T04:49:36;103015.59;;;0.60;79.48
69402;BME280;56589;51.992;5.924;2023-02-10T04:52:01;103023.38;;;0.62;79.40
69402;BME280;56589;51.992;5.924;2023-02-10T04:54:27;103021.63;;;0.61;79.40
69402;BME280;56589;51.992;5.924;2023-02-10T04:56:53;103023.38;;;0.60;79.62
69402;BME280;56589;51.992;5.924;2023-02-10T04:59:19;103025.94;;;0.60;79.39
69402;BME280;56589;51.992;5.924;2023-02-10T05:01:45;103030.19;;;0.55;79.71
69402;BME280;56589;51.992;5.924;2023-02-10T05:04:13;103031.84;;;0.53;79.55
69402;BME280;56589;51.992;5.924;2023-02-10T05:06:39;103034.44;;;0.53;79.63
69402;BME280;56589;51.992;5.924;2023-02-10T05:09:05;103034.44;;;0.52;79.45
69402;BME280;56589;51.992;5.924;2023-02-10T05:11:30;103027.53;;;0.52;79.61
69402;BME280;56589;51.992;5.924;2023-02-10T05:13:56;103026.66;;;0.50;79.64
69402;BME280;56589;51.992;5.924;2023-02-10T05:16:22;103024.94;;;0.51;79.55
69402;BME280;56589;51.992;5.924;2023-02-10T05:18:48;103021.50;;;0.50;79.73
69402;BME280;56589;51.992;5.924;2023-02-10T05:21:16;103022.34;;;0.51;79.50
69402;BME280;56589;51.992;5.924;2023-02-10T05:23:42;103018.91;;;0.50;79.67
69402;BME280;56589;51.992;5.924;2023-02-10T05:26:09;103026.66;;;0.52;79.55
69402;BME280;56589;51.992;5.924;2023-02-10T05:28:35;103022.41;;;0.54;79.63
69402;BME280;56589;51.992;5.924;2023-02-10T05:31:01;103017.25;;;0.54;79.44
69402;BME280;56589;51.992;5.924;2023-02-10T05:33:26;103018.97;;;0.55;79.77
69402;BME280;56589;51.992;5.924;2023-02-10T05:35:52;103018.13;;;0.56;79.68
69402;BME280;56589;51.992;5.924;2023-02-10T05:38:21;103024.16;;;0.56;79.76
69402;BME280;56589;51.992;5.924;2023-02-10T05:40:48;103026.72;;;0.55;79.45
69402;BME280;56589;51.992;5.924;2023-02-10T05:43:14;103033.63;;;0.54;79.69
69402;BME280;56589;51.992;5.924;2023-02-10T05:45:40;103036.22;;;0.56;79.91
69402;BME280;56589;51.992;5.924;2023-02-10T05:48:06;103031.84;;;0.53;79.84
69402;BME280;56589;51.992;5.924;2023-02-10T05:50:32;103029.28;;;0.53;79.60
69402;BME280;56589;51.992;5.924;2023-02-10T05:52:58;103031.84;;;0.52;79.73
69402;BME280;56589;51.992;5.924;2023-02-10T05:55:26;103030.09;;;0.51;79.59
69402;BME280;56589;51.992;5.924;2023-02-10T05:57:52;103034.41;;;0.50;79.71
69402;BME280;56589;51.992;5.924;2023-02-10T06:00:18;103038.69;;;0.48;79.76
69402;BME280;56589;51.992;5.924;2023-02-10T06:02:45;103034.41;;;0.49;79.94
69402;BME280;56589;51.992;5.924;2023-02-10T06:05:10;103031.81;;;0.49;80.00
69402;BME280;56589;51.992;5.924;2023-02-10T06:07:36;103038.72;;;0.50;79.88
69402;BME280;56589;51.992;5.924;2023-02-10T06:10:02;103029.25;;;0.50;80.25
69402;BME280;56589;51.992;5.924;2023-02-10T06:12:31;103027.53;;;0.52;79.85
69402;BME280;56589;51.992;5.924;2023-02-10T06:14:57;103029.28;;;0.53;79.85
69402;BME280;56589;51.992;5.924;2023-02-10T06:17:23;103027.59;;;0.55;79.96
69402;BME280;56589;51.992;5.924;2023-02-10T06:19:49;103024.16;;;0.55;80.20
69402;BME280;56589;51.992;5.924;2023-02-10T06:22:14;103022.41;;;0.54;80.05
69402;BME280;56589;51.992;5.924;2023-02-10T06:24:40;103025.88;;;0.54;80.25
69402;BME280;56589;51.992;5.924;2023-02-10T06:27:06;103019.00;;;0.56;80.00
69402;BME280;56589;51.992;5.924;2023-02-10T06:29:34;103025.00;;;0.55;80.01
69402;BME280;56589;51.992;5.924;2023-02-10T06:32:00;103023.31;;;0.57;80.52
69402;BME280;56589;51.992;5.924;2023-02-10T06:34:26;103030.25;;;0.60;80.34
69402;BME280;56589;51.992;5.924;2023-02-10T06:36:52;103021.63;;;0.61;80.17
69402;BME280;56589;51.992;5.924;2023-02-10T06:39:18;103030.28;;;0.63;80.26
69402;BME280;56589;51.992;5.924;2023-02-10T06:41:43;103035.44;;;0.63;80.31
69402;BME280;56589;51.992;5.924;2023-02-10T06:44:09;103036.31;;;0.65;80.30
69402;BME280;56589;51.992;5.924;2023-02-10T06:46:37;103039.84;;;0.69;80.34
69402;BME280;56589;51.992;5.924;2023-02-10T06:49:03;103040.69;;;0.69;80.48
69402;BME280;56589;51.992;5.924;2023-02-10T06:51:29;103042.44;;;0.70;80.21
69402;BME280;56589;51.992;5.924;2023-02-10T06:53:55;103043.34;;;0.72;80.05
69402;BME280;56589;51.992;5.924;2023-02-10T06:56:21;103042.47;;;0.73;80.24
69402;BME280;56589;51.992;5.924;2023-02-10T06:58:47;103044.16;;;0.71;79.97
69402;BME280;56589;51.992;5.924;2023-02-10T07:01:16;103049.31;;;0.71;80.21
69402;BME280;56589;51.992;5.924;2023-02-10T07:03:45;103051.03;;;0.69;80.26
69402;BME280;56589;51.992;5.924;2023-02-10T07:06:11;103052.75;;;0.70;80.33
69402;BME280;56589;51.992;5.924;2023-02-10T07:08:37;103050.16;;;0.69;80.35
69402;BME280;56589;51.992;5.924;2023-02-10T07:11:03;103053.63;;;0.69;80.45
69402;BME280;56589;51.992;5.924;2023-02-10T07:13:29;103054.50;;;0.70;80.19
69402;BME280;56589;51.992;5.924;2023-02-10T07:15:55;103046.75;;;0.71;80.54
69402;BME280;56589;51.992;5.924;2023-02-10T07:18:21;103056.25;;;0.72;80.43
69402;BME280;56589;51.992;5.924;2023-02-10T07:20:49;103054.53;;;0.73;80.14
69402;BME280;56589;51.992;5.924;2023-02-10T07:23:15;103049.38;;;0.74;80.33
69402;BME280;56589;51.992;5.924;2023-02-10T07:25:41;103050.25;;;0.75;80.68
69402;BME280;56589;51.992;5.924;2023-02-10T07:28:07;103052.84;;;0.76;80.26
69402;BME280;56589;51.992;5.924;2023-02-10T07:30:32;103055.44;;;0.78;80.50
69402;BME280;56589;51.992;5.924;2023-02-10T07:32:58;103052.03;;;0.79;80.26
69402;BME280;56589;51.992;5.924;2023-02-10T07:35:24;103055.50;;;0.82;80.50
69402;BME280;56589;51.992;5.924;2023-02-10T07:37:53;103055.53;;;0.84;80.47
69402;BME280;56589;51.992;5.924;2023-02-10T07:40:19;103061.59;;;0.84;80.59
69402;BME280;56589;51.992;5.924;2023-02-10T07:42:44;103065.84;;;0.81;80.60
69402;BME280;56589;51.992;5.924;2023-02-10T07:45:10;103064.13;;;0.80;80.47
69402;BME280;56589;51.992;5.924;2023-02-10T07:47:36;103073.63;;;0.82;80.56
69402;BME280;56589;51.992;5.924;2023-02-10T07:50:02;103068.44;;;0.84;80.25
69402;BME280;56589;51.992;5.924;2023-02-10T07:52:29;103072.81;;;0.85;80.11
69402;BME280;56589;51.992;5.924;2023-02-10T07:54:57;103078.00;;;0.86;80.15
69402;BME280;56589;51.992;5.924;2023-02-10T07:57:23;103082.28;;;0.84;80.05
69402;BME280;56589;51.992;5.924;2023-02-10T07:59:50;103081.38;;;0.82;80.26
69402;BME280;56589;51.992;5.924;2023-02-10T08:02:16;103090.84;;;0.83;80.61
69402;BME280;56589;51.992;5.924;2023-02-10T08:04:42;103094.31;;;0.82;80.29
69402;BME280;56589;51.992;5.924;2023-02-10T08:07:07;103091.78;;;0.85;80.67
69402;BME280;56589;51.992;5.924;2023-02-10T08:09:34;103097.03;;;0.92;80.73
69402;BME280;56589;51.992;5.924;2023-02-10T08:12:03;103097.91;;;0.95;80.22
69402;BME280;56589;51.992;5.924;2023-02-10T08:14:29;103107.47;;;1.01;80.39
69402;BME280;56589;51.992;5.924;2023-02-10T08:16:55;103117.91;;;1.07;80.20
69402;BME280;56589;51.992;5.924;2023-02-10T08:19:22;103122.25;;;1.09;80.28
69402;BME280;56589;51.992;5.924;2023-02-10T08:21:47;103119.69;;;1.12;80.40
69402;BME280;56589;51.992;5.924;2023-02-10T08:24:13;103117.97;;;1.13;80.26
69402;BME280;56589;51.992;5.924;2023-02-10T08:26:39;103129.19;;;1.13;79.84
69402;BME280;56589;51.992;5.924;2023-02-10T08:29:08;103130.03;;;1.11;80.16
69402;BME280;56589;51.992;5.924;2023-02-10T08:31:35;103127.38;;;1.06;79.86
69402;BME280;56589;51.992;5.924;2023-02-10T08:34:01;103114.44;;;1.05;79.79
69402;BME280;56589;51.992;5.924;2023-02-10T08:36:26;103109.19;;;1.00;80.10
69402;BME280;56589;51.992;5.924;2023-02-10T08:38:52;103108.34;;;1.01;80.23
69402;BME280;56589;51.992;5.924;2023-02-10T08:41:19;103106.69;;;1.06;79.94
69402;BME280;56589;51.992;5.924;2023-02-10T08:43:47;103106.75;;;1.09;80.01
69402;BME280;56589;51.992;5.924;2023-02-10T08:46:15;103108.47;;;1.10;80.06
69402;BME280;56589;51.992;5.924;2023-02-10T08:48:41;103122.34;;;1.15;80.17
69402;BME280;56589;51.992;5.924;2023-02-10T08:51:10;103104.25;;;1.20;80.42
69402;BME280;56589;51.992;5.924;2023-02-10T08:53:38;103112.09;;;1.25;80.19
69402;BME280;56589;51.992;5.924;2023-02-10T08:56:05;103110.41;;;1.28;80.29
69402;BME280;56589;51.992;5.924;2023-02-10T08:58:33;103109.56;;;1.29;79.96
69402;BME280;56589;51.992;5.924;2023-02-10T09:00:58;103107.84;;;1.30;79.91
69402;BME280;56589;51.992;5.924;2023-02-10T09:03:27;103119.06;;;1.32;80.16
69402;BME280;56589;51.992;5.924;2023-02-10T09:05:53;103125.09;;;1.29;80.10
69402;BME280;56589;51.992;5.924;2023-02-10T09:08:21;103118.25;;;1.34;79.85
69402;BME280;56589;51.992;5.924;2023-02-10T09:10:47;103122.59;;;1.38;80.16
69402;BME280;56589;51.992;5.924;2023-02-10T09:13:13;103126.13;;;1.43;80.04
69402;BME280;56589;51.992;5.924;2023-02-10T09:15:41;103122.72;;;1.49;80.20
69402;BME280;56589;51.992;5.924;2023-02-10T09:18:07;103132.28;;;1.53;80.02
69402;BME280;56589;51.992;5.924;2023-02-10T09:20:37;103117.63;;;1.55;79.96
69402;BME280;56589;51.992;5.924;2023-02-10T09:23:03;103127.16;;;1.58;79.85
69402;BME280;56589;51.992;5.924;2023-02-10T09:25:29;103125.44;;;1.58;80.13
69402;BME280;56589;51.992;5.924;2023-02-10T09:27:55;103124.59;;;1.62;80.17
69402;BME280;56589;51.992;5.924;2023-02-10T09:30:21;103124.66;;;1.65;79.93
69402;BME280;56589;51.992;5.924;2023-02-10T09:32:47;103127.25;;;1.67;79.60
69402;BME280;56589;51.992;5.924;2023-02-10T09:35:13;103126.44;;;1.71;79.84
69402;BME280;56589;51.992;5.924;2023-02-10T09:37:41;103120.44;;;1.77;79.92
69402;BME280;56589;51.992;5.924;2023-02-10T09:40:11;103126.56;;;1.85;79.98
69402;BME280;56589;51.992;5.924;2023-02-10T09:42:59;103124.09;;;1.95;80.02
69402;BME280;56589;51.992;5.924;2023-02-10T09:45:35;103127.59;;;2.05;79.87
69402;BME280;56589;51.992;5.924;2023-02-10T09:48:16;103137.16;;;2.12;79.64
69402;BME280;56589;51.992;5.924;2023-02-10T09:50:55;103131.16;;;2.16;79.53
69402;BME280;56589;51.992;5.924;2023-02-10T09:53:33;103136.41;;;2.22;79.58
69402;BME280;56589;51.992;5.924;2023-02-10T09:56:00;103142.47;;;2.24;79.75
69402;BME280;56589;51.992;5.924;2023-02-10T09:58:32;103132.13;;;2.29;79.38
69402;BME280;56589;51.992;5.924;2023-02-10T10:01:03;103129.59;;;2.35;79.64
69402;BME280;56589;51.992;5.924;2023-02-10T10:03:43;103142.66;;;2.49;79.76
69402;BME280;56589;51.992;5.924;2023-02-10T10:06:20;103135.00;;;2.67;79.99
69402;BME280;56589;51.992;5.924;2023-02-10T10:09:05;103144.63;;;2.84;79.74
69402;BME280;56589;51.992;5.924;2023-02-10T10:11:45;103146.38;;;2.89;79.42
69402;BME280;56589;51.992;5.924;2023-02-10T10:14:17;103147.25;;;2.88;78.81
69402;BME280;56589;51.992;5.924;2023-02-10T10:16:58;103143.75;;;2.86;79.05
69402;BME280;56589;51.992;5.924;2023-02-10T10:19:44;103148.94;;;2.85;78.90
69402;BME280;56589;51.992;5.924;2023-02-10T10:22:29;103141.19;;;2.92;79.16
69402;BME280;56589;51.992;5.924;2023-02-10T10:25:19;103138.72;;;3.06;79.32
69402;BME280;56589;51.992;5.924;2023-02-10T10:28:06;103130.97;;;3.18;79.12
69402;BME280;56589;51.992;5.924;2023-02-10T10:30:46;103140.53;;;3.31;79.01
69402;BME280;56589;51.992;5.924;2023-02-10T10:33:21;103141.47;;;3.43;78.74
69402;BME280;56589;51.992;5.924;2023-02-10T10:35:50;103137.16;;;3.49;78.71
69402;BME280;56589;51.992;5.924;2023-02-10T10:38:20;103136.31;;;3.61;78.85
69402;BME280;56589;51.992;5.924;2023-02-10T10:40:52;103138.06;;;3.71;78.26
69402;BME280;56589;51.992;5.924;2023-02-10T10:43:26;103140.69;;;3.76;78.23
69402;BME280;56589;51.992;5.924;2023-02-10T10:45:59;103132.91;;;3.85;78.23
69402;BME280;56589;51.992;5.924;2023-02-10T10:48:30;103127.72;;;3.91;77.97
69402;BME280;56589;51.992;5.924;2023-02-10T10:50:59;103115.59;;;4.02;77.97
69402;BME280;56589;51.992;5.924;2023-02-10T10:53:36;103119.06;;;4.17;78.12
69402;BME280;56589;51.992;5.924;2023-02-10T10:56:13;103112.13;;;4.31;77.77
69402;BME280;56589;51.992;5.924;2023-02-10T10:58:44;103114.72;;;4.45;77.61
69402;BME280;56589;51.992;5.924;2023-02-10T11:01:14;103117.31;;;4.54;77.13
69402;BME280;56589;51.992;5.924;2023-02-10T11:03:41;103109.50;;;4.55;76.61
69402;BME280;56589;51.992;5.924;2023-02-10T11:06:08;103112.13;;;4.54;76.34
69402;BME280;56589;51.992;5.924;2023-02-10T11:08:40;103110.38;;;4.54;76.38
69402;BME280;56589;51.992;5.924;2023-02-10T11:11:14;103110.38;;;4.56;76.41
69402;BME280;56589;51.992;5.924;2023-02-10T11:13:49;103114.69;;;4.60;76.24
69402;BME280;56589;51.992;5.924;2023-02-10T11:16:18;103110.34;;;4.66;76.28
69402;BME280;56589;51.992;5.924;2023-02-10T11:18:52;103108.59;;;4.75;76.35
69402;BME280;56589;51.992;5.924;2023-02-10T11:21:19;103105.97;;;4.84;76.01
69402;BME280;56589;51.992;5.924;2023-02-10T11:23:47;103101.63;;;4.93;76.11
69402;BME280;56589;51.992;5.924;2023-02-10T11:26:21;103096.38;;;5.06;75.96
69402;BME280;56589;51.992;5.924;2023-02-10T11:28:49;103096.34;;;5.15;75.90
69402;BME280;56589;51.992;5.924;2023-02-10T11:31:25;103085.03;;;5.22;75.32
69402;BME280;56589;51.992;5.924;2023-02-10T11:33:57;103089.31;;;5.31;75.00
69402;BME280;56589;51.992;5.924;2023-02-10T11:36:35;103094.47;;;5.41;75.00
69402;BME280;56589;51.992;5.924;2023-02-10T11:39:05;103090.94;;;5.52;75.15
69402;BME280;56589;51.992;5.924;2023-02-10T11:41:44;103087.38;;;5.66;74.87
69402;BME280;56589;51.992;5.924;2023-02-10T11:44:23;103082.06;;;5.80;74.62
69402;BME280;56589;51.992;5.924;2023-02-10T11:46:56;103075.06;;;5.88;74.04
69402;BME280;56589;51.992;5.924;2023-02-10T11:49:24;103076.72;;;5.97;73.85
69402;BME280;56589;51.992;5.924;2023-02-10T11:51:51;103074.91;;;6.05;73.59
69402;BME280;56589;51.992;5.924;2023-02-10T11:54:18;103074.00;;;6.12;73.50
69402;BME280;56589;51.992;5.924;2023-02-10T11:56:52;103063.47;;;6.21;73.09
69402;BME280;56589;51.992;5.924;2023-02-10T11:59:34;103063.38;;;6.32;72.98
69402;BME280;56589;51.992;5.924;2023-02-10T12:02:16;103051.09;;;6.42;72.92
69402;BME280;56589;51.992;5.924;2023-02-10T12:05:09;103044.88;;;6.53;72.54
69402;BME280;56589;51.992;5.924;2023-02-10T12:07:54;103050.91;;;6.59;72.33
69402;BME280;56589;51.992;5.924;2023-02-10T12:10:32;103059.53;;;6.65;72.26
69402;BME280;56589;51.992;5.924;2023-02-10T12:13:15;103063.81;;;6.71;71.48
69402;BME280;56589;51.992;5.924;2023-02-10T12:16:01;103063.72;;;6.81;71.45
69402;BME280;56589;51.992;5.924;2023-02-10T12:18:51;103069.75;;;6.87;71.32
69402;BME280;56589;51.992;5.924;2023-02-10T12:21:48;103065.31;;;6.93;71.04
69402;BME280;56589;51.992;5.924;2023-02-10T12:24:44;103064.34;;;7.00;71.04
69402;BME280;56589;51.992;5.924;2023-02-10T12:27:29;103061.63;;;7.08;70.85
69402;BME280;56589;51.992;5.924;2023-02-10T12:30:22;103061.53;;;7.16;70.31
69402;BME280;56589;51.992;5.924;2023-02-10T12:33:21;103057.97;;;7.21;69.55
69402;BME280;56589;51.992;5.924;2023-02-10T12:36:04;103055.31;;;7.26;69.77
69402;BME280;56589;51.992;5.924;2023-02-10T12:38:50;103054.38;;;7.30;69.78
69402;BME280;56589;51.992;5.924;2023-02-10T12:41:29;103052.56;;;7.38;69.27
69402;BME280;56589;51.992;5.924;2023-02-10T12:44:16;103037.66;;;7.43;69.03
69402;BME280;56589;51.992;5.924;2023-02-10T12:47:05;103036.69;;;7.50;68.96
69402;BME280;56589;51.992;5.924;2023-02-10T12:49:52;103038.28;;;7.59;68.93
69402;BME280;56589;51.992;5.924;2023-02-10T12:52:36;103034.72;;;7.65;67.84
69402;BME280;56589;51.992;5.924;2023-02-10T12:55:14;103020.66;;;7.73;68.20
69402;BME280;56589;51.992;5.924;2023-02-10T12:57:46;103030.13;;;7.80;67.54
69402;BME280;56589;51.992;5.924;2023-02-10T13:00:22;103012.53;;;7.90;67.56
69402;BME280;56589;51.992;5.924;2023-02-10T13:02:58;103010.72;;;7.94;66.89
69402;BME280;56589;51.992;5.924;2023-02-10T13:05:33;103006.25;;;7.99;66.52
69402;BME280;56589;51.992;5.924;2023-02-10T13:08:10;103008.78;;;8.05;66.28
69402;BME280;56589;51.992;5.924;2023-02-10T13:10:44;103006.09;;;8.08;66.12
69402;BME280;56589;51.992;5.924;2023-02-10T13:13:17;103007.75;;;8.12;65.08
69402;BME280;56589;51.992;5.924;2023-02-10T13:15:50;103011.22;;;8.14;65.47
69402;BME280;56589;51.992;5.924;2023-02-10T13:18:26;102998.94;;;8.18;65.44
69402;BME280;56589;51.992;5.924;2023-02-10T13:21:02;103010.91;;;8.31;65.98
69402;BME280;56589;51.992;5.924;2023-02-10T13:23:38;103001.94;;;8.42;64.86